Decoded Metar for VTSG (KRBI in THAILAND) (IATA:N/A) | Meteo·Mobile Aviation Weather
aviador You're here:

VTSG Decoded Metar

KRBI in THAILAND
Report Time2020-02-23 11:00:00
UTC Time2020-02-23 11:27:31
Flight Rules vfr VFR
Wind080° at 08 kt
W.Decomp.*RWY 14: 4.0 kt HW 6.9 kt LCW
Visibility9999 m
Phenomena:N/A
Clouds:Few 020 Hf
Expected CloudBase > 4,400 ft AGL from Temp-Dew spread
CeilingNone
Temp31°C (ISA +16)
Dew Point20°C (52% RH)
Heat Index33.0°C
QNH1011 hPa
Density Alt2,306 ft
Elevation82 ft
Report Wrong Elevation
Raw Report
VTSG 231100Z 08008KT 040V120 9999 FEW020 31/20 Q1011 NOSIG=

Extra information for VTSG:More info

Metar Taf Metar & Taf Last 4 Metars F.Rules Stats Wind Profile Meteogram Temp Stats Airport Information Weather charts Add Link Nearby VenuesMetar ALERT Operation Metar Decoded Social comments